sensor_id;sensor_type;location;lat;lon;timestamp;P1;durP1;ratioP1;P2;durP2;ratioP2
19903;SDS011;10114;50.970;4.962;2024-01-30T00:02:11;6.03;;;2.75;;
19903;SDS011;10114;50.970;4.962;2024-01-30T00:04:37;7.90;;;2.75;;
19903;SDS011;10114;50.970;4.962;2024-01-30T00:07:03;5.68;;;2.83;;
19903;SDS011;10114;50.970;4.962;2024-01-30T00:09:29;5.93;;;2.83;;
19903;SDS011;10114;50.970;4.962;2024-01-30T00:11:55;8.80;;;3.15;;
19903;SDS011;10114;50.970;4.962;2024-01-30T00:14:22;6.28;;;2.75;;
19903;SDS011;10114;50.970;4.962;2024-01-30T00:16:48;5.80;;;2.67;;
19903;SDS011;10114;50.970;4.962;2024-01-30T00:19:14;7.85;;;2.50;;
19903;SDS011;10114;50.970;4.962;2024-01-30T00:21:40;6.15;;;3.28;;
19903;SDS011;10114;50.970;4.962;2024-01-30T00:24:06;7.13;;;2.95;;
19903;SDS011;10114;50.970;4.962;2024-01-30T00:26:32;6.60;;;3.08;;
19903;SDS011;10114;50.970;4.962;2024-01-30T00:28:58;9.18;;;3.13;;
19903;SDS011;10114;50.970;4.962;2024-01-30T00:31:25;8.57;;;3.40;;
19903;SDS011;10114;50.970;4.962;2024-01-30T00:33:51;7.93;;;3.33;;
19903;SDS011;10114;50.970;4.962;2024-01-30T00:36:17;9.38;;;3.60;;
19903;SDS011;10114;50.970;4.962;2024-01-30T00:38:43;8.07;;;3.55;;
19903;SDS011;10114;50.970;4.962;2024-01-30T00:41:09;5.85;;;2.75;;
19903;SDS011;10114;50.970;4.962;2024-01-30T00:43:35;6.70;;;3.38;;
19903;SDS011;10114;50.970;4.962;2024-01-30T00:46:01;7.63;;;3.03;;
19903;SDS011;10114;50.970;4.962;2024-01-30T00:48:28;7.20;;;3.20;;
19903;SDS011;10114;50.970;4.962;2024-01-30T00:50:54;5.68;;;2.53;;
19903;SDS011;10114;50.970;4.962;2024-01-30T00:53:20;7.88;;;3.17;;
19903;SDS011;10114;50.970;4.962;2024-01-30T00:55:46;4.72;;;2.67;;
19903;SDS011;10114;50.970;4.962;2024-01-30T00:58:12;5.93;;;3.08;;
19903;SDS011;10114;50.970;4.962;2024-01-30T01:00:38;6.82;;;2.00;;
19903;SDS011;10114;50.970;4.962;2024-01-30T01:03:04;10.93;;;3.03;;
19903;SDS011;10114;50.970;4.962;2024-01-30T01:05:31;10.52;;;2.83;;
19903;SDS011;10114;50.970;4.962;2024-01-30T01:07:57;4.82;;;2.35;;
19903;SDS011;10114;50.970;4.962;2024-01-30T01:10:23;5.53;;;2.95;;
19903;SDS011;10114;50.970;4.962;2024-01-30T01:12:49;6.43;;;2.60;;
19903;SDS011;10114;50.970;4.962;2024-01-30T01:15:15;6.07;;;2.90;;
19903;SDS011;10114;50.970;4.962;2024-01-30T01:17:41;6.38;;;2.78;;
19903;SDS011;10114;50.970;4.962;2024-01-30T01:20:07;6.65;;;2.47;;
19903;SDS011;10114;50.970;4.962;2024-01-30T01:22:35;8.25;;;2.85;;
19903;SDS011;10114;50.970;4.962;2024-01-30T01:25:03;7.43;;;2.75;;
19903;SDS011;10114;50.970;4.962;2024-01-30T01:27:32;6.40;;;2.70;;
19903;SDS011;10114;50.970;4.962;2024-01-30T01:29:59;6.28;;;2.50;;
19903;SDS011;10114;50.970;4.962;2024-01-30T01:32:25;8.57;;;2.90;;
19903;SDS011;10114;50.970;4.962;2024-01-30T01:34:51;6.70;;;2.75;;
19903;SDS011;10114;50.970;4.962;2024-01-30T01:37:17;7.88;;;2.85;;
19903;SDS011;10114;50.970;4.962;2024-01-30T01:39:43;5.75;;;2.65;;
19903;SDS011;10114;50.970;4.962;2024-01-30T01:42:09;4.93;;;2.38;;
19903;SDS011;10114;50.970;4.962;2024-01-30T01:44:35;4.70;;;1.88;;
19903;SDS011;10114;50.970;4.962;2024-01-30T01:47:01;6.85;;;2.70;;
19903;SDS011;10114;50.970;4.962;2024-01-30T01:49:28;6.78;;;2.92;;
19903;SDS011;10114;50.970;4.962;2024-01-30T01:51:55;7.05;;;2.88;;
19903;SDS011;10114;50.970;4.962;2024-01-30T01:54:25;6.95;;;2.63;;
19903;SDS011;10114;50.970;4.962;2024-01-30T01:56:51;5.32;;;2.63;;
19903;SDS011;10114;50.970;4.962;2024-01-30T01:59:18;7.57;;;3.33;;
19903;SDS011;10114;50.970;4.962;2024-01-30T02:01:45;5.72;;;2.40;;
19903;SDS011;10114;50.970;4.962;2024-01-30T02:04:14;5.45;;;2.25;;
19903;SDS011;10114;50.970;4.962;2024-01-30T02:06:40;4.43;;;2.03;;
19903;SDS011;10114;50.970;4.962;2024-01-30T02:09:06;5.97;;;2.75;;
19903;SDS011;10114;50.970;4.962;2024-01-30T02:11:34;6.22;;;2.58;;
19903;SDS011;10114;50.970;4.962;2024-01-30T02:14:04;10.88;;;3.20;;
19903;SDS011;10114;50.970;4.962;2024-01-30T02:16:30;7.13;;;2.50;;
19903;SDS011;10114;50.970;4.962;2024-01-30T02:18:56;7.93;;;2.90;;
19903;SDS011;10114;50.970;4.962;2024-01-30T02:21:22;5.38;;;2.63;;
19903;SDS011;10114;50.970;4.962;2024-01-30T02:23:48;5.10;;;2.67;;
19903;SDS011;10114;50.970;4.962;2024-01-30T02:26:15;7.53;;;3.15;;
19903;SDS011;10114;50.970;4.962;2024-01-30T02:28:41;5.57;;;2.42;;
19903;SDS011;10114;50.970;4.962;2024-01-30T02:31:07;6.32;;;2.80;;
19903;SDS011;10114;50.970;4.962;2024-01-30T02:33:33;6.22;;;2.90;;
19903;SDS011;10114;50.970;4.962;2024-01-30T02:35:59;8.05;;;2.65;;
19903;SDS011;10114;50.970;4.962;2024-01-30T02:38:25;6.32;;;2.83;;
19903;SDS011;10114;50.970;4.962;2024-01-30T02:40:51;5.07;;;2.17;;
19903;SDS011;10114;50.970;4.962;2024-01-30T02:43:17;7.32;;;2.35;;
19903;SDS011;10114;50.970;4.962;2024-01-30T02:45:43;5.97;;;2.33;;
19903;SDS011;10114;50.970;4.962;2024-01-30T02:48:09;5.13;;;2.25;;
19903;SDS011;10114;50.970;4.962;2024-01-30T02:50:35;9.25;;;3.03;;
19903;SDS011;10114;50.970;4.962;2024-01-30T02:53:01;4.75;;;2.42;;
19903;SDS011;10114;50.970;4.962;2024-01-30T02:55:27;6.90;;;2.67;;
19903;SDS011;10114;50.970;4.962;2024-01-30T02:57:53;6.75;;;3.00;;
19903;SDS011;10114;50.970;4.962;2024-01-30T03:00:19;4.45;;;2.20;;
19903;SDS011;10114;50.970;4.962;2024-01-30T03:02:45;5.05;;;2.10;;
19903;SDS011;10114;50.970;4.962;2024-01-30T03:05:12;5.50;;;2.35;;
19903;SDS011;10114;50.970;4.962;2024-01-30T03:07:38;7.63;;;2.63;;
19903;SDS011;10114;50.970;4.962;2024-01-30T03:10:04;6.88;;;3.00;;
19903;SDS011;10114;50.970;4.962;2024-01-30T03:12:31;5.00;;;2.15;;
19903;SDS011;10114;50.970;4.962;2024-01-30T03:14:57;5.68;;;2.28;;
19903;SDS011;10114;50.970;4.962;2024-01-30T03:17:23;6.75;;;2.60;;
19903;SDS011;10114;50.970;4.962;2024-01-30T03:19:49;5.82;;;2.30;;
19903;SDS011;10114;50.970;4.962;2024-01-30T03:22:15;5.30;;;2.60;;
19903;SDS011;10114;50.970;4.962;2024-01-30T03:24:41;6.03;;;2.58;;
19903;SDS011;10114;50.970;4.962;2024-01-30T03:27:08;4.90;;;2.58;;
19903;SDS011;10114;50.970;4.962;2024-01-30T03:29:34;12.70;;;3.38;;
19903;SDS011;10114;50.970;4.962;2024-01-30T03:32:00;6.03;;;2.58;;
19903;SDS011;10114;50.970;4.962;2024-01-30T03:34:26;6.70;;;2.90;;
19903;SDS011;10114;50.970;4.962;2024-01-30T03:36:52;5.30;;;2.40;;
19903;SDS011;10114;50.970;4.962;2024-01-30T03:39:18;8.73;;;2.75;;
19903;SDS011;10114;50.970;4.962;2024-01-30T03:41:44;8.57;;;3.08;;
19903;SDS011;10114;50.970;4.962;2024-01-30T03:44:10;8.32;;;2.97;;
19903;SDS011;10114;50.970;4.962;2024-01-30T03:46:36;3.88;;;1.95;;
19903;SDS011;10114;50.970;4.962;2024-01-30T03:49:02;6.38;;;2.67;;
19903;SDS011;10114;50.970;4.962;2024-01-30T03:51:28;7.97;;;2.70;;
19903;SDS011;10114;50.970;4.962;2024-01-30T03:53:54;8.85;;;3.10;;
19903;SDS011;10114;50.970;4.962;2024-01-30T03:56:20;5.18;;;2.55;;
19903;SDS011;10114;50.970;4.962;2024-01-30T03:58:46;6.22;;;2.83;;
19903;SDS011;10114;50.970;4.962;2024-01-30T04:01:16;8.88;;;3.22;;
19903;SDS011;10114;50.970;4.962;2024-01-30T04:03:42;12.38;;;2.83;;
19903;SDS011;10114;50.970;4.962;2024-01-30T04:06:09;5.72;;;2.50;;
19903;SDS011;10114;50.970;4.962;2024-01-30T04:08:35;7.75;;;3.17;;
19903;SDS011;10114;50.970;4.962;2024-01-30T04:11:05;3.70;;;2.10;;
19903;SDS011;10114;50.970;4.962;2024-01-30T04:13:31;5.95;;;2.40;;
19903;SDS011;10114;50.970;4.962;2024-01-30T04:15:58;7.30;;;2.67;;
19903;SDS011;10114;50.970;4.962;2024-01-30T04:18:26;6.82;;;2.60;;
19903;SDS011;10114;50.970;4.962;2024-01-30T04:20:52;8.93;;;2.72;;
19903;SDS011;10114;50.970;4.962;2024-01-30T04:23:18;4.72;;;2.40;;
19903;SDS011;10114;50.970;4.962;2024-01-30T04:25:44;9.30;;;2.50;;
19903;SDS011;10114;50.970;4.962;2024-01-30T04:28:10;5.93;;;2.72;;
19903;SDS011;10114;50.970;4.962;2024-01-30T04:30:39;7.38;;;2.70;;
19903;SDS011;10114;50.970;4.962;2024-01-30T04:33:05;8.32;;;2.60;;
19903;SDS011;10114;50.970;4.962;2024-01-30T04:35:32;5.88;;;2.35;;
19903;SDS011;10114;50.970;4.962;2024-01-30T04:37:58;8.25;;;2.10;;
19903;SDS011;10114;50.970;4.962;2024-01-30T04:40:24;4.93;;;2.30;;
19903;SDS011;10114;50.970;4.962;2024-01-30T04:42:50;6.35;;;3.05;;
19903;SDS011;10114;50.970;4.962;2024-01-30T04:45:16;8.27;;;3.15;;
19903;SDS011;10114;50.970;4.962;2024-01-30T04:47:42;6.25;;;2.80;;
19903;SDS011;10114;50.970;4.962;2024-01-30T04:50:08;6.30;;;2.50;;
19903;SDS011;10114;50.970;4.962;2024-01-30T04:52:34;7.70;;;2.80;;
19903;SDS011;10114;50.970;4.962;2024-01-30T04:55:00;5.25;;;2.65;;
19903;SDS011;10114;50.970;4.962;2024-01-30T04:57:26;5.88;;;2.33;;
19903;SDS011;10114;50.970;4.962;2024-01-30T04:59:52;5.53;;;2.13;;
19903;SDS011;10114;50.970;4.962;2024-01-30T05:02:19;7.60;;;2.75;;
19903;SDS011;10114;50.970;4.962;2024-01-30T05:04:45;7.13;;;2.75;;
19903;SDS011;10114;50.970;4.962;2024-01-30T05:07:11;5.97;;;2.67;;
19903;SDS011;10114;50.970;4.962;2024-01-30T05:09:37;6.65;;;2.30;;
19903;SDS011;10114;50.970;4.962;2024-01-30T05:12:03;8.15;;;2.80;;
19903;SDS011;10114;50.970;4.962;2024-01-30T05:14:29;5.25;;;2.00;;
19903;SDS011;10114;50.970;4.962;2024-01-30T05:16:55;7.40;;;2.47;;
19903;SDS011;10114;50.970;4.962;2024-01-30T05:19:21;6.53;;;2.50;;
19903;SDS011;10114;50.970;4.962;2024-01-30T05:21:48;6.15;;;2.33;;
19903;SDS011;10114;50.970;4.962;2024-01-30T05:24:14;5.25;;;2.53;;
19903;SDS011;10114;50.970;4.962;2024-01-30T05:26:40;9.02;;;2.80;;
19903;SDS011;10114;50.970;4.962;2024-01-30T05:29:06;5.90;;;2.38;;
19903;SDS011;10114;50.970;4.962;2024-01-30T05:31:33;7.50;;;2.28;;
19903;SDS011;10114;50.970;4.962;2024-01-30T05:33:59;4.28;;;1.88;;
19903;SDS011;10114;50.970;4.962;2024-01-30T05:36:25;4.22;;;2.28;;
19903;SDS011;10114;50.970;4.962;2024-01-30T05:38:51;9.13;;;2.90;;
19903;SDS011;10114;50.970;4.962;2024-01-30T05:41:17;3.65;;;1.95;;
19903;SDS011;10114;50.970;4.962;2024-01-30T05:43:43;6.75;;;2.75;;
19903;SDS011;10114;50.970;4.962;2024-01-30T05:46:09;6.00;;;2.53;;
19903;SDS011;10114;50.970;4.962;2024-01-30T05:48:35;6.80;;;2.53;;
19903;SDS011;10114;50.970;4.962;2024-01-30T05:51:01;4.90;;;2.45;;
19903;SDS011;10114;50.970;4.962;2024-01-30T05:53:29;5.78;;;2.78;;
19903;SDS011;10114;50.970;4.962;2024-01-30T05:55:55;6.10;;;2.45;;
19903;SDS011;10114;50.970;4.962;2024-01-30T05:58:21;5.72;;;2.30;;
19903;SDS011;10114;50.970;4.962;2024-01-30T06:00:47;7.38;;;2.75;;
19903;SDS011;10114;50.970;4.962;2024-01-30T06:03:14;6.10;;;2.17;;
19903;SDS011;10114;50.970;4.962;2024-01-30T06:05:40;3.67;;;1.65;;
19903;SDS011;10114;50.970;4.962;2024-01-30T06:08:07;9.70;;;2.53;;
19903;SDS011;10114;50.970;4.962;2024-01-30T06:10:33;5.15;;;2.25;;
19903;SDS011;10114;50.970;4.962;2024-01-30T06:13:01;5.35;;;2.15;;
19903;SDS011;10114;50.970;4.962;2024-01-30T06:15:28;5.55;;;2.10;;
19903;SDS011;10114;50.970;4.962;2024-01-30T06:17:58;4.07;;;1.77;;
19903;SDS011;10114;50.970;4.962;2024-01-30T06:20:24;4.50;;;2.38;;
19903;SDS011;10114;50.970;4.962;2024-01-30T06:22:50;7.28;;;2.45;;
19903;SDS011;10114;50.970;4.962;2024-01-30T06:25:16;5.35;;;2.28;;
19903;SDS011;10114;50.970;4.962;2024-01-30T06:27:42;7.07;;;2.72;;
19903;SDS011;10114;50.970;4.962;2024-01-30T06:30:08;5.38;;;2.50;;
19903;SDS011;10114;50.970;4.962;2024-01-30T06:32:37;5.63;;;1.92;;
19903;SDS011;10114;50.970;4.962;2024-01-30T06:35:04;5.78;;;2.40;;
19903;SDS011;10114;50.970;4.962;2024-01-30T06:37:30;6.22;;;2.60;;
19903;SDS011;10114;50.970;4.962;2024-01-30T06:39:56;5.88;;;2.45;;
19903;SDS011;10114;50.970;4.962;2024-01-30T06:42:22;8.02;;;2.35;;
19903;SDS011;10114;50.970;4.962;2024-01-30T06:44:49;7.80;;;3.00;;
19903;SDS011;10114;50.970;4.962;2024-01-30T06:47:15;6.97;;;2.53;;
19903;SDS011;10114;50.970;4.962;2024-01-30T06:49:41;5.78;;;2.60;;
19903;SDS011;10114;50.970;4.962;2024-01-30T06:52:08;6.07;;;2.35;;
19903;SDS011;10114;50.970;4.962;2024-01-30T06:54:34;7.93;;;2.70;;
19903;SDS011;10114;50.970;4.962;2024-01-30T06:57:00;6.40;;;2.60;;
19903;SDS011;10114;50.970;4.962;2024-01-30T06:59:26;4.80;;;2.50;;
19903;SDS011;10114;50.970;4.962;2024-01-30T07:01:52;6.57;;;2.60;;
19903;SDS011;10114;50.970;4.962;2024-01-30T07:04:19;5.82;;;2.35;;
19903;SDS011;10114;50.970;4.962;2024-01-30T07:06:45;4.88;;;2.35;;
19903;SDS011;10114;50.970;4.962;2024-01-30T07:09:11;5.75;;;2.58;;
19903;SDS011;10114;50.970;4.962;2024-01-30T07:11:38;5.13;;;2.10;;
19903;SDS011;10114;50.970;4.962;2024-01-30T07:14:04;6.32;;;2.83;;
19903;SDS011;10114;50.970;4.962;2024-01-30T07:16:30;5.38;;;2.13;;
19903;SDS011;10114;50.970;4.962;2024-01-30T07:18:56;6.55;;;2.50;;
19903;SDS011;10114;50.970;4.962;2024-01-30T07:21:22;6.95;;;3.13;;
19903;SDS011;10114;50.970;4.962;2024-01-30T07:23:56;4.72;;;2.40;;
19903;SDS011;10114;50.970;4.962;2024-01-30T07:26:22;6.45;;;2.63;;
19903;SDS011;10114;50.970;4.962;2024-01-30T07:28:48;5.95;;;2.53;;
19903;SDS011;10114;50.970;4.962;2024-01-30T07:31:15;5.45;;;2.45;;
19903;SDS011;10114;50.970;4.962;2024-01-30T07:33:41;4.88;;;2.35;;
19903;SDS011;10114;50.970;4.962;2024-01-30T07:36:07;7.13;;;2.58;;
19903;SDS011;10114;50.970;4.962;2024-01-30T07:38:33;6.57;;;2.38;;
19903;SDS011;10114;50.970;4.962;2024-01-30T07:40:59;6.72;;;2.42;;
19903;SDS011;10114;50.970;4.962;2024-01-30T07:43:25;5.22;;;2.55;;
19903;SDS011;10114;50.970;4.962;2024-01-30T07:45:51;8.23;;;2.80;;
19903;SDS011;10114;50.970;4.962;2024-01-30T07:48:17;5.88;;;2.47;;
19903;SDS011;10114;50.970;4.962;2024-01-30T07:50:43;7.10;;;2.85;;
19903;SDS011;10114;50.970;4.962;2024-01-30T07:53:09;6.65;;;2.88;;
19903;SDS011;10114;50.970;4.962;2024-01-30T07:55:36;4.63;;;2.08;;
19903;SDS011;10114;50.970;4.962;2024-01-30T07:58:02;4.47;;;2.38;;
19903;SDS011;10114;50.970;4.962;2024-01-30T08:00:29;5.13;;;2.63;;
19903;SDS011;10114;50.970;4.962;2024-01-30T08:02:55;8.57;;;2.90;;
19903;SDS011;10114;50.970;4.962;2024-01-30T08:05:22;5.75;;;2.45;;
19903;SDS011;10114;50.970;4.962;2024-01-30T08:07:48;7.05;;;2.60;;
19903;SDS011;10114;50.970;4.962;2024-01-30T08:10:15;5.18;;;2.40;;
19903;SDS011;10114;50.970;4.962;2024-01-30T08:12:43;7.78;;;3.13;;
19903;SDS011;10114;50.970;4.962;2024-01-30T08:15:09;6.50;;;2.72;;
19903;SDS011;10114;50.970;4.962;2024-01-30T08:17:35;7.82;;;3.10;;
19903;SDS011;10114;50.970;4.962;2024-01-30T08:20:01;5.72;;;2.75;;
19903;SDS011;10114;50.970;4.962;2024-01-30T08:22:29;7.40;;;2.78;;
19903;SDS011;10114;50.970;4.962;2024-01-30T08:24:55;6.47;;;2.53;;
19903;SDS011;10114;50.970;4.962;2024-01-30T08:27:21;6.95;;;2.28;;
19903;SDS011;10114;50.970;4.962;2024-01-30T08:29:47;6.88;;;2.47;;
19903;SDS011;10114;50.970;4.962;2024-01-30T08:32:15;5.82;;;2.47;;
19903;SDS011;10114;50.970;4.962;2024-01-30T08:34:41;6.60;;;2.58;;
19903;SDS011;10114;50.970;4.962;2024-01-30T08:37:07;10.80;;;3.20;;
19903;SDS011;10114;50.970;4.962;2024-01-30T08:39:33;7.25;;;2.90;;
19903;SDS011;10114;50.970;4.962;2024-01-30T08:41:59;9.50;;;2.63;;
19903;SDS011;10114;50.970;4.962;2024-01-30T08:44:25;5.20;;;2.50;;
19903;SDS011;10114;50.970;4.962;2024-01-30T08:46:52;6.97;;;2.80;;
19903;SDS011;10114;50.970;4.962;2024-01-30T08:49:19;5.32;;;2.50;;
19903;SDS011;10114;50.970;4.962;2024-01-30T08:51:46;4.80;;;2.22;;
19903;SDS011;10114;50.970;4.962;2024-01-30T08:54:12;5.82;;;2.63;;
19903;SDS011;10114;50.970;4.962;2024-01-30T08:56:38;6.35;;;2.45;;
19903;SDS011;10114;50.970;4.962;2024-01-30T08:59:04;6.22;;;3.25;;
19903;SDS011;10114;50.970;4.962;2024-01-30T09:01:30;8.13;;;2.97;;
19903;SDS011;10114;50.970;4.962;2024-01-30T09:03:56;10.05;;;3.55;;
19903;SDS011;10114;50.970;4.962;2024-01-30T09:06:22;9.23;;;2.67;;
19903;SDS011;10114;50.970;4.962;2024-01-30T09:08:51;8.70;;;3.50;;
19903;SDS011;10114;50.970;4.962;2024-01-30T09:11:17;5.40;;;2.83;;
19903;SDS011;10114;50.970;4.962;2024-01-30T09:13:44;7.90;;;3.67;;
19903;SDS011;10114;50.970;4.962;2024-01-30T09:16:10;7.38;;;2.78;;
19903;SDS011;10114;50.970;4.962;2024-01-30T09:18:36;9.00;;;2.67;;
19903;SDS011;10114;50.970;4.962;2024-01-30T09:21:02;8.50;;;2.72;;
19903;SDS011;10114;50.970;4.962;2024-01-30T09:23:28;7.88;;;3.08;;
19903;SDS011;10114;50.970;4.962;2024-01-30T09:25:54;7.25;;;2.95;;
19903;SDS011;10114;50.970;4.962;2024-01-30T09:28:20;6.30;;;2.75;;
19903;SDS011;10114;50.970;4.962;2024-01-30T09:30:47;9.80;;;3.05;;
19903;SDS011;10114;50.970;4.962;2024-01-30T09:33:13;9.57;;;3.45;;
19903;SDS011;10114;50.970;4.962;2024-01-30T09:35:39;11.30;;;3.63;;
19903;SDS011;10114;50.970;4.962;2024-01-30T09:38:05;7.85;;;2.67;;
19903;SDS011;10114;50.970;4.962;2024-01-30T09:40:31;6.43;;;3.25;;
19903;SDS011;10114;50.970;4.962;2024-01-30T09:42:57;7.20;;;3.05;;
19903;SDS011;10114;50.970;4.962;2024-01-30T09:45:27;7.07;;;2.88;;
19903;SDS011;10114;50.970;4.962;2024-01-30T09:47:53;8.35;;;2.70;;
19903;SDS011;10114;50.970;4.962;2024-01-30T09:50:19;6.45;;;2.97;;
19903;SDS011;10114;50.970;4.962;2024-01-30T09:52:48;13.55;;;3.25;;
19903;SDS011;10114;50.970;4.962;2024-01-30T09:55:15;7.88;;;3.15;;
19903;SDS011;10114;50.970;4.962;2024-01-30T09:57:41;5.68;;;2.47;;
19903;SDS011;10114;50.970;4.962;2024-01-30T10:00:08;6.72;;;2.50;;
19903;SDS011;10114;50.970;4.962;2024-01-30T10:02:34;8.15;;;3.25;;
19903;SDS011;10114;50.970;4.962;2024-01-30T10:05:01;5.97;;;2.60;;
19903;SDS011;10114;50.970;4.962;2024-01-30T10:07:27;7.88;;;2.90;;
19903;SDS011;10114;50.970;4.962;2024-01-30T10:09:54;7.72;;;3.75;;
19903;SDS011;10114;50.970;4.962;2024-01-30T10:12:21;8.07;;;3.17;;
19903;SDS011;10114;50.970;4.962;2024-01-30T10:14:47;8.13;;;3.03;;
19903;SDS011;10114;50.970;4.962;2024-01-30T10:17:13;6.72;;;2.72;;
19903;SDS011;10114;50.970;4.962;2024-01-30T10:19:40;8.23;;;3.33;;
19903;SDS011;10114;50.970;4.962;2024-01-30T10:22:07;9.20;;;3.17;;
19903;SDS011;10114;50.970;4.962;2024-01-30T10:24:33;6.68;;;2.90;;
19903;SDS011;10114;50.970;4.962;2024-01-30T10:26:59;9.45;;;3.33;;
19903;SDS011;10114;50.970;4.962;2024-01-30T10:29:26;8.45;;;3.05;;
19903;SDS011;10114;50.970;4.962;2024-01-30T10:32:02;5.80;;;2.40;;
19903;SDS011;10114;50.970;4.962;2024-01-30T10:34:28;7.25;;;3.05;;
19903;SDS011;10114;50.970;4.962;2024-01-30T10:36:59;7.18;;;2.72;;
19903;SDS011;10114;50.970;4.962;2024-01-30T10:39:27;7.78;;;3.35;;
19903;SDS011;10114;50.970;4.962;2024-01-30T10:41:56;7.75;;;3.45;;
19903;SDS011;10114;50.970;4.962;2024-01-30T10:44:24;11.70;;;4.53;;
19903;SDS011;10114;50.970;4.962;2024-01-30T10:46:55;8.35;;;3.10;;
19903;SDS011;10114;50.970;4.962;2024-01-30T10:49:22;7.18;;;3.33;;
19903;SDS011;10114;50.970;4.962;2024-01-30T10:51:49;5.60;;;3.00;;
19903;SDS011;10114;50.970;4.962;2024-01-30T10:54:16;8.65;;;3.60;;
19903;SDS011;10114;50.970;4.962;2024-01-30T10:56:43;8.27;;;4.18;;
19903;SDS011;10114;50.970;4.962;2024-01-30T10:59:09;10.27;;;3.55;;
19903;SDS011;10114;50.970;4.962;2024-01-30T11:01:35;12.35;;;4.32;;
19903;SDS011;10114;50.970;4.962;2024-01-30T11:04:02;6.60;;;2.95;;
19903;SDS011;10114;50.970;4.962;2024-01-30T11:06:28;6.05;;;3.13;;
19903;SDS011;10114;50.970;4.962;2024-01-30T11:09:01;6.15;;;2.42;;
19903;SDS011;10114;50.970;4.962;2024-01-30T11:14:23;7.90;;;4.05;;
19903;SDS011;10114;50.970;4.962;2024-01-30T11:16:50;6.88;;;3.75;;
19903;SDS011;10114;50.970;4.962;2024-01-30T11:19:22;10.55;;;4.80;;
19903;SDS011;10114;50.970;4.962;2024-01-30T11:21:50;8.07;;;3.80;;
19903;SDS011;10114;50.970;4.962;2024-01-30T11:24:19;10.95;;;3.65;;
19903;SDS011;10114;50.970;4.962;2024-01-30T11:26:45;7.03;;;3.45;;
19903;SDS011;10114;50.970;4.962;2024-01-30T11:29:13;9.60;;;2.97;;
19903;SDS011;10114;50.970;4.962;2024-01-30T11:31:40;6.90;;;3.38;;
19903;SDS011;10114;50.970;4.962;2024-01-30T11:34:06;8.07;;;3.53;;
19903;SDS011;10114;50.970;4.962;2024-01-30T11:36:32;7.20;;;3.08;;
19903;SDS011;10114;50.970;4.962;2024-01-30T11:39:02;12.13;;;4.32;;
19903;SDS011;10114;50.970;4.962;2024-01-30T11:41:28;9.40;;;3.20;;
19903;SDS011;10114;50.970;4.962;2024-01-30T11:43:55;7.60;;;3.47;;
19903;SDS011;10114;50.970;4.962;2024-01-30T11:46:23;7.93;;;3.25;;
19903;SDS011;10114;50.970;4.962;2024-01-30T11:48:50;7.25;;;2.80;;
19903;SDS011;10114;50.970;4.962;2024-01-30T11:51:16;8.48;;;2.55;;
19903;SDS011;10114;50.970;4.962;2024-01-30T11:53:44;7.10;;;2.38;;
19903;SDS011;10114;50.970;4.962;2024-01-30T11:56:11;5.35;;;2.88;;
19903;SDS011;10114;50.970;4.962;2024-01-30T11:58:38;5.93;;;2.13;;
19903;SDS011;10114;50.970;4.962;2024-01-30T12:01:08;4.38;;;2.28;;
19903;SDS011;10114;50.970;4.962;2024-01-30T12:03:34;6.22;;;2.40;;
19903;SDS011;10114;50.970;4.962;2024-01-30T12:06:00;4.75;;;2.08;;
19903;SDS011;10114;50.970;4.962;2024-01-30T12:08:28;7.75;;;1.92;;
19903;SDS011;10114;50.970;4.962;2024-01-30T12:10:57;8.02;;;2.15;;
19903;SDS011;10114;50.970;4.962;2024-01-30T12:13:24;9.25;;;2.22;;
19903;SDS011;10114;50.970;4.962;2024-01-30T12:15:51;6.05;;;1.90;;
19903;SDS011;10114;50.970;4.962;2024-01-30T12:18:20;3.95;;;1.95;;
19903;SDS011;10114;50.970;4.962;2024-01-30T12:20:56;6.00;;;1.75;;
19903;SDS011;10114;50.970;4.962;2024-01-30T12:23:22;5.00;;;1.80;;
19903;SDS011;10114;50.970;4.962;2024-01-30T12:25:50;5.15;;;1.90;;
19903;SDS011;10114;50.970;4.962;2024-01-30T12:28:16;3.05;;;1.05;;
19903;SDS011;10114;50.970;4.962;2024-01-30T12:30:42;2.80;;;0.90;;
19903;SDS011;10114;50.970;4.962;2024-01-30T12:33:08;3.85;;;1.63;;
19903;SDS011;10114;50.970;4.962;2024-01-30T12:35:35;2.45;;;1.10;;
19903;SDS011;10114;50.970;4.962;2024-01-30T12:38:01;3.08;;;1.20;;
19903;SDS011;10114;50.970;4.962;2024-01-30T12:40:27;4.00;;;0.65;;
19903;SDS011;10114;50.970;4.962;2024-01-30T12:42:54;1.88;;;0.68;;
19903;SDS011;10114;50.970;4.962;2024-01-30T12:45:20;1.88;;;0.77;;
19903;SDS011;10114;50.970;4.962;2024-01-30T12:47:47;1.98;;;0.75;;
19903;SDS011;10114;50.970;4.962;2024-01-30T12:50:13;2.22;;;0.57;;
19903;SDS011;10114;50.970;4.962;2024-01-30T12:52:41;1.70;;;0.60;;
19903;SDS011;10114;50.970;4.962;2024-01-30T12:55:07;5.05;;;0.50;;
19903;SDS011;10114;50.970;4.962;2024-01-30T12:57:33;0.40;;;0.30;;
19903;SDS011;10114;50.970;4.962;2024-01-30T12:59:59;0.30;;;0.20;;
19903;SDS011;10114;50.970;4.962;2024-01-30T13:02:25;0.65;;;0.43;;
19903;SDS011;10114;50.970;4.962;2024-01-30T13:04:55;0.90;;;0.20;;
19903;SDS011;10114;50.970;4.962;2024-01-30T13:07:21;1.02;;;0.28;;
19903;SDS011;10114;50.970;4.962;2024-01-30T13:09:47;1.83;;;0.47;;
19903;SDS011;10114;50.970;4.962;2024-01-30T13:12:13;0.38;;;0.30;;
19903;SDS011;10114;50.970;4.962;2024-01-30T13:14:39;3.65;;;0.50;;
19903;SDS011;10114;50.970;4.962;2024-01-30T13:17:05;2.90;;;0.50;;
19903;SDS011;10114;50.970;4.962;2024-01-30T13:19:31;2.15;;;0.95;;
19903;SDS011;10114;50.970;4.962;2024-01-30T13:21:57;3.60;;;0.52;;
19903;SDS011;10114;50.970;4.962;2024-01-30T13:24:23;1.70;;;0.40;;
19903;SDS011;10114;50.970;4.962;2024-01-30T13:26:49;2.10;;;0.35;;
19903;SDS011;10114;50.970;4.962;2024-01-30T13:29:15;2.40;;;0.30;;
19903;SDS011;10114;50.970;4.962;2024-01-30T13:31:41;0.80;;;0.30;;
19903;SDS011;10114;50.970;4.962;2024-01-30T13:34:09;0.25;;;0.20;;
19903;SDS011;10114;50.970;4.962;2024-01-30T13:36:35;0.17;;;0.17;;
19903;SDS011;10114;50.970;4.962;2024-01-30T13:39:01;0.32;;;0.20;;
19903;SDS011;10114;50.970;4.962;2024-01-30T13:41:27;0.88;;;0.30;;
19903;SDS011;10114;50.970;4.962;2024-01-30T13:43:55;2.10;;;0.70;;
19903;SDS011;10114;50.970;4.962;2024-01-30T13:46:21;1.63;;;0.55;;
19903;SDS011;10114;50.970;4.962;2024-01-30T13:48:47;0.55;;;0.30;;
19903;SDS011;10114;50.970;4.962;2024-01-30T13:51:13;1.45;;;0.35;;
19903;SDS011;10114;50.970;4.962;2024-01-30T13:53:39;0.75;;;0.30;;
19903;SDS011;10114;50.970;4.962;2024-01-30T13:56:05;3.17;;;0.57;;
19903;SDS011;10114;50.970;4.962;2024-01-30T13:58:32;1.98;;;0.40;;
19903;SDS011;10114;50.970;4.962;2024-01-30T14:00:58;3.53;;;0.55;;
19903;SDS011;10114;50.970;4.962;2024-01-30T14:03:24;0.55;;;0.20;;
19903;SDS011;10114;50.970;4.962;2024-01-30T14:05:50;0.77;;;0.40;;
19903;SDS011;10114;50.970;4.962;2024-01-30T14:08:16;0.57;;;0.20;;
19903;SDS011;10114;50.970;4.962;2024-01-30T14:10:42;0.70;;;0.28;;
19903;SDS011;10114;50.970;4.962;2024-01-30T14:13:09;1.45;;;0.60;;
19903;SDS011;10114;50.970;4.962;2024-01-30T14:15:36;0.98;;;0.35;;
19903;SDS011;10114;50.970;4.962;2024-01-30T14:18:02;1.23;;;0.32;;
19903;SDS011;10114;50.970;4.962;2024-01-30T14:20:28;4.13;;;0.50;;
19903;SDS011;10114;50.970;4.962;2024-01-30T14:22:54;1.42;;;0.30;;
19903;SDS011;10114;50.970;4.962;2024-01-30T14:25:20;1.50;;;0.40;;
19903;SDS011;10114;50.970;4.962;2024-01-30T14:27:46;2.42;;;0.65;;
19903;SDS011;10114;50.970;4.962;2024-01-30T14:30:12;3.78;;;0.30;;
19903;SDS011;10114;50.970;4.962;2024-01-30T14:32:38;5.28;;;0.70;;
19903;SDS011;10114;50.970;4.962;2024-01-30T14:35:06;2.47;;;0.50;;
19903;SDS011;10114;50.970;4.962;2024-01-30T14:37:32;4.38;;;0.50;;
19903;SDS011;10114;50.970;4.962;2024-01-30T14:39:58;1.67;;;0.40;;
19903;SDS011;10114;50.970;4.962;2024-01-30T14:42:24;0.57;;;0.30;;
19903;SDS011;10114;50.970;4.962;2024-01-30T14:44:51;2.97;;;0.98;;
19903;SDS011;10114;50.970;4.962;2024-01-30T14:47:17;1.58;;;0.60;;